Time;durP1;ratioP1;P1;durP2;ratioP2;P2;SDS_P1;SDS_P2;PMS_P1;PMS_P2;Temp;Humidity;BMP_temperature;BMP_pressure;BME280_temperature;BME280_humidity;BME280_pressure;Samples;Min_cycle;Max_cycle;Signal;HPM_P1;HPM_P2
2023/12/08 00:00:39;;;;;;;29.13;17.67;;;;;;;-2.46;88.74;101027.03;5120466;27;20681;-64
2023/12/08 00:03:07;;;;;;;29.47;16.37;;;;;;;-2.45;88.12;101033.81;5098406;28;20193;-65
2023/12/08 00:05:35;;;;;;;29.97;16.97;;;;;;;-2.49;88.53;101031.91;5117999;28;20218;-66
2023/12/08 00:08:03;;;;;;;29.10;15.87;;;;;;;-2.52;88.55;101026.69;5108995;28;20238;-64
2023/12/08 00:10:31;;;;;;;29.07;17.03;;;;;;;-2.46;89.50;101032.06;5109200;28;20219;-67
2023/12/08 00:12:59;;;;;;;33.30;17.97;;;;;;;-2.40;89.19;101031.53;5114421;27;20227;-64
2023/12/08 00:15:26;;;;;;;28.73;16.60;;;;;;;-2.32;89.60;101019.34;5122153;28;20199;-62
2023/12/08 00:17:56;;;;;;;31.27;17.23;;;;;;;-2.33;88.13;101015.94;5111278;28;20232;-61
2023/12/08 00:20:25;;;;;;;29.27;14.27;;;;;;;-2.32;87.94;101014.28;5120693;28;20195;-62
2023/12/08 00:22:53;;;;;;;34.37;18.03;;;;;;;-2.38;87.82;101017.38;5115301;28;20203;-63
2023/12/08 00:25:21;;;;;;;31.30;15.57;;;;;;;-2.52;87.74;101016.59;5113192;28;20654;-62
2023/12/08 00:27:49;;;;;;;29.33;15.17;;;;;;;-2.53;88.25;101003.91;5117366;28;20199;-62
2023/12/08 00:30:17;;;;;;;26.00;15.67;;;;;;;-2.68;88.70;101011.47;5110336;28;20215;-61
2023/12/08 00:32:46;;;;;;;23.93;12.27;;;;;;;-2.71;88.53;101014.66;5109164;28;20216;-64
2023/12/08 00:35:15;;;;;;;30.63;16.60;;;;;;;-2.68;89.35;101008.94;5115463;28;20358;-64
2023/12/08 00:37:43;;;;;;;30.80;16.30;;;;;;;-2.73;88.95;101002.75;5105081;28;20215;-64
2023/12/08 00:40:12;;;;;;;26.60;14.27;;;;;;;-2.77;89.00;101010.91;5114715;28;20195;-63
2023/12/08 00:42:40;;;;;;;24.77;13.53;;;;;;;-2.88;88.57;100999.34;5114748;28;20208;-63
2023/12/08 00:45:09;;;;;;;30.07;16.23;;;;;;;-2.92;89.34;100998.31;5109735;28;20191;-61
2023/12/08 00:47:37;;;;;;;29.27;15.37;;;;;;;-2.95;89.34;100996.47;5122095;28;20260;-63
2023/12/08 00:50:07;;;;;;;24.53;13.27;;;;;;;-2.98;89.72;100995.44;5114865;28;20219;-62
2023/12/08 00:52:36;;;;;;;29.77;15.50;;;;;;;-3.05;90.00;100990.84;5120227;28;20226;-63
2023/12/08 00:55:05;;;;;;;31.00;15.43;;;;;;;-3.05;89.93;100991.69;5107462;28;20196;-63
2023/12/08 00:57:33;;;;;;;30.53;16.60;;;;;;;-3.01;90.14;101003.69;5121046;28;20253;-64
2023/12/08 01:00:01;;;;;;;31.17;16.53;;;;;;;-2.95;90.16;100998.13;5114317;28;20288;-63
2023/12/08 01:02:29;;;;;;;23.57;12.17;;;;;;;-3.00;88.70;100990.28;5123401;28;20491;-62
2023/12/08 01:04:57;;;;;;;31.17;16.40;;;;;;;-2.99;89.32;100987.00;5121090;28;20260;-63
2023/12/08 01:07:25;;;;;;;29.10;16.37;;;;;;;-2.99;88.83;100986.13;5110934;28;20204;-62
2023/12/08 01:09:55;;;;;;;30.00;16.37;;;;;;;-2.97;89.31;101005.59;5105402;27;20269;-66
2023/12/08 01:12:23;;;;;;;29.80;16.77;;;;;;;-2.91;89.84;101005.06;5121136;27;20651;-63
2023/12/08 01:14:51;;;;;;;34.23;16.03;;;;;;;-2.89;89.11;101011.09;5111026;27;20660;-62
2023/12/08 01:17:19;;;;;;;22.40;12.07;;;;;;;-2.80;89.05;101016.69;5125456;27;20304;-65
2023/12/08 01:19:47;;;;;;;24.83;13.30;;;;;;;-2.82;87.19;101029.97;5109082;27;20249;-64
2023/12/08 01:22:15;;;;;;;26.53;16.17;;;;;;;-2.88;87.48;101039.69;5116810;27;20200;-62
2023/12/08 01:24:43;;;;;;;24.67;15.53;;;;;;;-2.87;88.57;101041.44;5122853;27;20196;-63
2023/12/08 01:27:12;;;;;;;28.27;15.40;;;;;;;-2.78;87.82;101036.94;5102581;27;20211;-64
2023/12/08 01:29:40;;;;;;;26.50;15.33;;;;;;;-2.72;88.04;101017.13;5113432;27;20223;-64
2023/12/08 01:32:08;;;;;;;28.23;14.20;;;;;;;-2.75;87.06;101006.84;5115638;27;20283;-62
2023/12/08 01:34:36;;;;;;;24.53;13.47;;;;;;;-2.77;87.05;101008.41;5100941;27;20574;-62
2023/12/08 01:37:04;;;;;;;27.27;15.07;;;;;;;-2.84;86.97;101013.88;5117236;27;20251;-63
2023/12/08 01:39:32;;;;;;;29.07;15.60;;;;;;;-2.76;88.01;101013.56;5119227;27;20203;-63
2023/12/08 01:42:00;;;;;;;27.73;16.50;;;;;;;-2.70;87.20;101016.41;5116171;27;20778;-64
2023/12/08 01:44:29;;;;;;;33.37;15.43;;;;;;;-2.66;86.57;101017.44;5116238;27;20206;-63
2023/12/08 01:46:58;;;;;;;27.93;15.57;;;;;;;-2.69;86.77;101008.06;5104467;27;20227;-62
2023/12/08 01:49:26;;;;;;;29.07;15.93;;;;;;;-2.63;86.39;101010.06;5120588;27;20219;-61
2023/12/08 01:51:54;;;;;;;28.30;15.00;;;;;;;-2.60;85.94;101011.91;5110794;27;20219;-67
2023/12/08 01:54:22;;;;;;;29.27;15.53;;;;;;;-2.63;84.96;101007.53;5115400;27;20203;-64
2023/12/08 01:56:50;;;;;;;28.83;15.47;;;;;;;-2.73;85.65;100995.19;5117716;27;20530;-63
2023/12/08 01:59:19;;;;;;;31.60;14.27;;;;;;;-2.80;85.49;101005.69;5124637;27;20299;-63
2023/12/08 02:01:48;;;;;;;30.33;15.63;;;;;;;-2.82;86.04;101014.84;5117403;27;20678;-64
2023/12/08 02:04:16;;;;;;;30.93;14.23;;;;;;;-2.78;86.05;101011.72;5116755;27;20212;-63
2023/12/08 02:06:44;;;;;;;25.87;13.57;;;;;;;-2.74;85.05;101016.16;5116601;27;20653;-63
2023/12/08 02:09:17;;;;;;;28.53;15.30;;;;;;;-2.71;85.43;100998.66;5112802;27;20686;-62
2023/12/08 02:11:45;;;;;;;26.07;13.73;;;;;;;-2.72;84.59;101004.50;5111727;27;20215;-62
2023/12/08 02:14:13;;;;;;;27.23;15.13;;;;;;;-2.69;84.73;100998.00;5112281;27;20246;-64
2023/12/08 02:16:50;;;;;;;29.27;14.60;;;;;;;-2.69;84.76;100997.09;5117858;27;20224;-64
2023/12/08 02:19:18;;;;;;;28.67;15.73;;;;;;;-2.61;84.44;101000.94;5118451;27;20203;-63
2023/12/08 02:21:47;;;;;;;24.53;13.70;;;;;;;-2.56;84.42;100997.00;5112237;27;20732;-63
2023/12/08 02:24:19;;;;;;;24.47;13.37;;;;;;;-2.50;84.02;100991.47;5111979;27;20691;-68
2023/12/08 02:26:48;;;;;;;26.17;13.50;;;;;;;-2.45;83.72;100990.91;5108544;27;20291;-62
2023/12/08 02:29:16;;;;;;;26.43;13.83;;;;;;;-2.47;82.59;100987.44;5116582;27;20663;-62
2023/12/08 02:31:47;;;;;;;26.87;14.50;;;;;;;-2.53;82.29;100989.63;5121924;27;20203;-65
2023/12/08 02:34:16;;;;;;;30.27;14.53;;;;;;;-2.54;82.67;100997.97;5121485;27;20210;-67
2023/12/08 02:36:46;;;;;;;27.87;12.80;;;;;;;-2.57;82.38;101007.91;5110373;27;20246;-62
2023/12/08 02:39:16;;;;;;;26.60;14.10;;;;;;;-2.61;83.17;101000.94;5121185;27;20195;-65
2023/12/08 02:41:44;;;;;;;29.57;14.07;;;;;;;-2.61;82.62;100990.84;5113600;27;20581;-62
2023/12/08 02:44:13;;;;;;;27.60;13.73;;;;;;;-2.54;82.36;101004.66;5111018;27;20638;-63
2023/12/08 02:46:40;;;;;;;26.13;14.57;;;;;;;-2.51;82.45;101004.84;5106073;27;20199;-63
2023/12/08 02:49:08;;;;;;;23.57;13.23;;;;;;;-2.56;82.58;101003.72;5110367;27;20673;-63
2023/12/08 02:51:36;;;;;;;27.07;14.70;;;;;;;-2.57;82.69;100994.41;5113864;27;20226;-63
2023/12/08 02:54:05;;;;;;;27.77;14.03;;;;;;;-2.59;82.54;100989.25;5106858;27;20302;-62
2023/12/08 02:56:34;;;;;;;28.80;15.33;;;;;;;-2.54;81.99;100997.09;5101445;27;20226;-62
2023/12/08 02:59:02;;;;;;;24.43;13.13;;;;;;;-2.46;83.14;100990.84;5115440;27;20208;-63
2023/12/08 03:01:30;;;;;;;32.73;16.20;;;;;;;-2.35;82.64;100999.00;5111203;27;20204;-64
2023/12/08 03:03:58;;;;;;;26.27;14.27;;;;;;;-2.29;82.58;100994.28;5117318;27;20204;-63
2023/12/08 03:06:26;;;;;;;27.03;13.43;;;;;;;-2.29;81.93;100989.22;5123399;27;20711;-63
2023/12/08 03:08:54;;;;;;;26.00;14.93;;;;;;;-2.40;80.90;100978.53;5116139;27;20245;-64
2023/12/08 03:11:22;;;;;;;28.97;14.63;;;;;;;-2.47;81.59;100984.94;5110246;27;20294;-63
2023/12/08 03:13:51;;;;;;;25.83;14.37;;;;;;;-2.49;82.13;100991.53;5109519;27;20204;-62
2023/12/08 03:16:19;;;;;;;29.53;15.27;;;;;;;-2.47;82.33;101000.06;5115557;27;20211;-61
2023/12/08 03:18:47;;;;;;;28.63;15.40;;;;;;;-2.45;81.92;101010.22;5113082;27;20203;-64
2023/12/08 03:21:22;;;;;;;25.93;14.23;;;;;;;-2.47;81.97;101012.69;5111533;27;20200;-62
2023/12/08 03:23:50;;;;;;;30.57;14.73;;;;;;;-2.45;82.22;101015.28;5113416;27;20704;-64
2023/12/08 03:26:19;;;;;;;27.40;14.07;;;;;;;-2.43;81.83;101021.25;5117783;27;20196;-62
2023/12/08 03:28:47;;;;;;;28.33;14.83;;;;;;;-2.47;81.58;101030.34;5116479;27;20261;-63
2023/12/08 03:31:24;;;;;;;28.67;14.33;;;;;;;-2.52;81.93;101031.72;5112473;27;20216;-61
2023/12/08 03:33:52;;;;;;;23.00;11.57;;;;;;;-2.62;81.78;101028.59;5109323;28;20658;-63
2023/12/08 03:36:20;;;;;;;29.53;15.10;;;;;;;-2.68;82.69;101024.06;5111000;27;20200;-62
2023/12/08 03:38:48;;;;;;;28.77;15.37;;;;;;;-2.65;82.70;101030.94;5115884;27;20200;-62
2023/12/08 03:41:16;;;;;;;27.17;14.27;;;;;;;-2.64;82.42;101030.16;5107212;27;20200;-63
2023/12/08 03:43:44;;;;;;;28.33;15.77;;;;;;;-2.65;82.44;101030.94;5112370;27;20204;-63
2023/12/08 03:46:12;;;;;;;28.67;14.77;;;;;;;-2.55;83.38;101030.69;5116527;27;20212;-65
2023/12/08 03:48:41;;;;;;;27.47;15.50;;;;;;;-2.47;82.72;101020.25;5107129;27;20211;-62
2023/12/08 03:51:10;;;;;;;28.20;15.00;;;;;;;-2.39;82.56;101013.13;5106862;27;20639;-62
2023/12/08 03:53:38;;;;;;;33.17;16.63;;;;;;;-2.27;82.37;101020.50;5114997;27;20619;-63
2023/12/08 03:56:07;;;;;;;28.97;14.80;;;;;;;-2.23;82.11;101008.13;5111159;27;20218;-61
2023/12/08 03:58:35;;;;;;;32.03;15.77;;;;;;;-2.24;81.33;101013.97;5108842;28;20695;-61
2023/12/08 04:01:04;;;;;;;32.97;15.80;;;;;;;-2.35;80.84;101006.59;5114675;27;20191;-65
2023/12/08 04:03:32;;;;;;;31.03;15.47;;;;;;;-2.41;81.76;101006.22;5112565;28;20232;-63
2023/12/08 04:06:01;;;;;;;30.10;15.57;;;;;;;-2.48;81.75;101012.59;5113464;27;20614;-62
2023/12/08 04:08:29;;;;;;;27.70;15.87;;;;;;;-2.53;82.05;101008.94;5111109;28;20204;-63
2023/12/08 04:10:57;;;;;;;30.37;15.97;;;;;;;-2.57;82.23;101015.47;5107106;28;20745;-62
2023/12/08 04:13:25;;;;;;;29.73;15.03;;;;;;;-2.56;82.99;101013.81;5117434;28;20647;-66
2023/12/08 04:15:53;;;;;;;32.23;15.17;;;;;;;-2.54;83.24;101005.56;5116437;28;20195;-63
2023/12/08 04:18:21;;;;;;;34.07;16.43;;;;;;;-2.50;83.41;101009.97;5108072;28;20315;-63
2023/12/08 04:20:49;;;;;;;28.97;15.07;;;;;;;-2.55;82.51;101013.00;5117210;28;20673;-63
2023/12/08 04:23:18;;;;;;;33.00;16.23;;;;;;;-2.53;83.27;101007.28;5114312;27;20196;-63
2023/12/08 04:25:46;;;;;;;30.90;16.40;;;;;;;-2.47;83.83;101009.25;5113749;28;20646;-63
2023/12/08 04:28:14;;;;;;;27.50;15.17;;;;;;;-2.56;82.74;101004.59;5112615;28;20662;-62
2023/12/08 04:30:41;;;;;;;36.87;18.07;;;;;;;-2.61;83.42;101007.66;5116178;28;20702;-65
2023/12/08 04:33:10;;;;;;;35.77;18.10;;;;;;;-2.73;83.66;100996.03;5110586;28;20200;-62
2023/12/08 04:35:38;;;;;;;32.70;16.97;;;;;;;-2.76;84.21;100995.00;5112678;28;20253;-62
2023/12/08 04:38:05;;;;;;;34.40;15.87;;;;;;;-2.78;84.08;100989.00;5110814;28;20208;-62
2023/12/08 04:40:35;;;;;;;38.93;17.40;;;;;;;-2.79;84.99;100990.66;5113712;28;20531;-63
2023/12/08 04:43:03;;;;;;;29.83;16.87;;;;;;;-2.77;85.30;100993.28;5106097;28;20204;-64
2023/12/08 04:45:31;;;;;;;35.03;17.40;;;;;;;-2.75;84.39;100997.63;5102946;27;20201;-64
2023/12/08 04:47:59;;;;;;;36.27;17.93;;;;;;;-2.70;84.74;100997.88;5112375;27;20310;-63
2023/12/08 04:50:27;;;;;;;31.27;14.43;;;;;;;-2.87;83.64;100991.00;5120694;27;20203;-63
2023/12/08 04:52:55;;;;;;;31.90;15.80;;;;;;;-2.91;84.80;100989.94;5111281;27;20709;-63
2023/12/08 04:55:23;;;;;;;35.47;16.80;;;;;;;-2.89;85.13;100993.44;5108640;27;20207;-62
2023/12/08 04:57:52;;;;;;;31.63;16.37;;;;;;;-2.83;84.85;100990.41;5110900;27;20214;-62
2023/12/08 05:00:20;;;;;;;35.60;18.77;;;;;;;-2.86;84.14;100982.66;5115127;27;20252;-64
2023/12/08 05:02:48;;;;;;;29.10;16.37;;;;;;;-2.84;84.52;100994.56;5109122;27;20214;-65
2023/12/08 05:05:17;;;;;;;30.33;16.07;;;;;;;-2.79;84.63;100984.75;5116631;27;20204;-64
2023/12/08 05:07:45;;;;;;;33.20;17.77;;;;;;;-2.76;83.98;100989.97;5116554;27;20216;-64
2023/12/08 05:10:13;;;;;;;34.87;18.00;;;;;;;-2.80;83.81;100981.38;5114996;27;20551;-63
2023/12/08 05:12:41;;;;;;;37.27;17.03;;;;;;;-2.82;83.34;100977.88;5106712;28;20227;-64
2023/12/08 05:15:11;;;;;;;28.37;16.10;;;;;;;-2.83;84.00;100982.84;5115225;27;20212;-62
2023/12/08 05:17:41;;;;;;;33.77;17.73;;;;;;;-2.85;83.76;100979.34;5121911;27;20579;-66
2023/12/08 05:20:12;;;;;;;30.23;15.17;;;;;;;-2.84;84.09;100996.22;5118922;27;20277;-63
2023/12/08 05:22:40;;;;;;;28.97;15.57;;;;;;;-2.93;83.42;100996.56;5112015;27;20232;-62
2023/12/08 05:25:09;;;;;;;37.33;17.47;;;;;;;-2.93;83.82;101002.47;5112028;27;20203;-62
2023/12/08 05:27:38;;;;;;;35.80;17.23;;;;;;;-2.96;83.86;100999.78;5115489;27;20283;-63
2023/12/08 05:30:07;;;;;;;36.10;17.57;;;;;;;-2.93;84.05;100997.44;5111299;27;20265;-63
2023/12/08 05:32:37;;;;;;;35.50;17.47;;;;;;;-2.88;83.67;100995.16;5112307;27;20212;-62
2023/12/08 05:35:05;;;;;;;32.53;14.60;;;;;;;-2.92;83.52;100993.25;5126944;27;20196;-68
2023/12/08 05:37:33;;;;;;;29.77;16.30;;;;;;;-2.93;83.22;100994.91;5119985;27;20204;-62
2023/12/08 05:40:01;;;;;;;38.33;17.87;;;;;;;-2.89;83.77;100987.53;5117530;27;20240;-64
2023/12/08 05:42:29;;;;;;;32.20;15.67;;;;;;;-2.84;83.80;100992.03;5111877;27;20239;-62
2023/12/08 05:44:57;;;;;;;37.27;18.43;;;;;;;-2.82;83.97;100992.16;5110672;27;20218;-62
2023/12/08 05:47:25;;;;;;;36.57;18.20;;;;;;;-2.81;83.73;100986.31;5111838;27;20212;-63
2023/12/08 05:49:55;;;;;;;35.03;18.00;;;;;;;-2.79;83.13;100984.75;5113929;27;20215;-63
2023/12/08 05:52:23;;;;;;;30.73;14.73;;;;;;;-2.90;82.97;100979.09;5117755;27;20651;-64
2023/12/08 05:54:50;;;;;;;36.27;18.23;;;;;;;-3.00;83.51;100972.66;5117386;27;20646;-62
2023/12/08 05:57:18;;;;;;;35.93;16.27;;;;;;;-3.02;83.00;100966.66;5117966;27;20208;-62
2023/12/08 05:59:46;;;;;;;39.77;17.60;;;;;;;-3.07;83.42;100964.66;5108429;27;20720;-63
2023/12/08 06:02:14;;;;;;;43.00;18.70;;;;;;;-3.19;84.03;100964.81;5115143;27;20659;-64
2023/12/08 06:04:42;;;;;;;37.83;17.17;;;;;;;-3.23;84.11;100968.81;5117606;27;20634;-64
2023/12/08 06:07:11;;;;;;;38.47;17.07;;;;;;;-3.25;84.19;100964.44;5115420;27;20211;-62
2023/12/08 06:09:40;;;;;;;29.47;15.57;;;;;;;-3.28;84.63;100969.31;5116125;27;20210;-63
2023/12/08 06:12:08;;;;;;;41.23;18.10;;;;;;;-3.33;84.49;100970.69;5113073;27;20340;-61
2023/12/08 06:14:36;;;;;;;35.63;18.43;;;;;;;-3.26;84.78;100972.78;5114023;27;20204;-63
2023/12/08 06:17:04;;;;;;;39.60;17.30;;;;;;;-3.18;84.72;100958.97;5107899;27;20299;-63
2023/12/08 06:19:34;;;;;;;38.80;17.77;;;;;;;-3.12;84.54;100968.56;5109088;27;20696;-61
2023/12/08 06:22:02;;;;;;;41.27;19.07;;;;;;;-3.06;84.29;100969.75;5111601;27;20571;-62
2023/12/08 06:24:31;;;;;;;36.67;17.43;;;;;;;-3.02;84.34;100976.75;5106813;27;20559;-60
2023/12/08 06:26:59;;;;;;;36.90;15.60;;;;;;;-3.03;83.55;100975.00;5095562;27;20243;-61
2023/12/08 06:29:27;;;;;;;35.40;17.73;;;;;;;-3.00;83.74;100969.25;5111667;27;20742;-60
2023/12/08 06:31:58;;;;;;;37.53;18.40;;;;;;;-3.00;83.46;100964.22;5110599;27;20662;-61
2023/12/08 06:34:26;;;;;;;41.70;18.23;;;;;;;-2.95;83.63;100973.78;5107505;27;20607;-65
2023/12/08 06:36:54;;;;;;;39.03;20.17;;;;;;;-2.99;82.82;100971.88;5106306;27;20335;-62
2023/12/08 06:39:22;;;;;;;37.70;18.63;;;;;;;-3.04;82.57;100970.75;5121308;27;20735;-61
2023/12/08 06:41:51;;;;;;;31.87;14.07;;;;;;;-3.14;83.27;100968.47;5116521;27;20258;-62
2023/12/08 06:44:19;;;;;;;42.30;18.90;;;;;;;-3.18;83.51;100958.97;5121750;27;20704;-66
2023/12/08 06:46:47;;;;;;;42.80;19.27;;;;;;;-3.15;83.64;100964.22;5118964;27;20211;-62
2023/12/08 06:49:15;;;;;;;41.27;18.80;;;;;;;-3.10;83.43;100970.38;5112227;27;20214;-64
2023/12/08 06:51:43;;;;;;;39.73;18.47;;;;;;;-3.09;83.48;100969.63;5113831;27;20196;-62
2023/12/08 06:54:11;;;;;;;43.10;18.57;;;;;;;-3.04;83.50;100968.22;5112779;27;20203;-61
2023/12/08 06:56:41;;;;;;;36.27;17.43;;;;;;;-3.02;82.94;100959.09;5113433;27;21095;-61
2023/12/08 06:59:11;;;;;;;43.83;17.60;;;;;;;-3.07;82.63;100963.00;5107624;27;20319;-63
2023/12/08 07:01:39;;;;;;;45.23;20.10;;;;;;;-3.14;83.14;100965.06;5116184;27;20224;-61
2023/12/08 07:04:07;;;;;;;42.33;20.73;;;;;;;-3.24;83.41;100964.56;5115393;27;20257;-60
2023/12/08 07:06:35;;;;;;;43.73;19.33;;;;;;;-3.25;83.81;100956.88;5103188;27;20192;-61
2023/12/08 07:09:03;;;;;;;37.53;19.37;;;;;;;-3.18;83.74;100951.41;5115268;27;20214;-60
2023/12/08 07:11:31;;;;;;;42.33;19.80;;;;;;;-3.12;83.97;100950.91;5112891;27;20195;-61
2023/12/08 07:13:59;;;;;;;42.30;19.73;;;;;;;-3.05;83.34;100953.88;5119991;27;20230;-60
2023/12/08 07:16:28;;;;;;;38.87;18.53;;;;;;;-3.02;83.66;100949.03;5109347;27;20223;-60
2023/12/08 07:18:57;;;;;;;43.53;19.87;;;;;;;-2.97;83.19;100954.31;5114659;27;20657;-59
2023/12/08 07:21:25;;;;;;;40.23;18.37;;;;;;;-2.89;83.01;100952.22;5115171;27;20391;-62
2023/12/08 07:23:53;;;;;;;44.27;20.43;;;;;;;-2.96;82.43;100967.00;5115285;27;20206;-66
2023/12/08 07:26:21;;;;;;;37.23;18.23;;;;;;;-3.01;82.07;100965.00;5122263;27;20218;-64
2023/12/08 07:28:49;;;;;;;38.43;17.67;;;;;;;-3.04;82.78;100968.22;5111837;28;20575;-62
2023/12/08 07:31:17;;;;;;;40.37;19.37;;;;;;;-3.01;82.86;100962.50;5118135;27;20212;-63
2023/12/08 07:33:46;;;;;;;40.17;18.77;;;;;;;-3.02;82.26;100959.09;5101546;28;20220;-63
2023/12/08 07:36:14;;;;;;;35.60;16.47;;;;;;;-3.06;82.82;100972.28;5113619;27;20196;-62
2023/12/08 07:38:42;;;;;;;41.57;19.33;;;;;;;-3.07;82.54;100963.00;5118507;27;20192;-63
2023/12/08 07:41:10;;;;;;;40.53;19.23;;;;;;;-3.16;83.24;100960.81;5101805;28;20235;-72
2023/12/08 07:43:38;;;;;;;37.47;17.43;;;;;;;-3.08;82.66;100976.38;5111021;28;20283;-63
2023/12/08 07:46:07;;;;;;;47.37;19.07;;;;;;;-3.00;82.62;100974.31;5111263;28;20295;-66
2023/12/08 07:48:35;;;;;;;41.70;19.53;;;;;;;-2.98;82.98;100975.28;5097270;28;20677;-62
2023/12/08 07:51:05;;;;;;;41.47;18.47;;;;;;;-2.96;82.20;100967.00;5110335;27;20203;-63
2023/12/08 07:53:33;;;;;;;42.07;19.17;;;;;;;-2.91;82.19;100977.34;5113238;27;20207;-62
2023/12/08 07:56:01;;;;;;;37.57;18.67;;;;;;;-2.85;82.21;100980.22;5116623;27;20203;-62
2023/12/08 07:58:28;;;;;;;38.73;17.53;;;;;;;-2.85;81.29;100977.69;5121769;27;20479;-63
2023/12/08 08:00:57;;;;;;;42.33;19.87;;;;;;;-2.78;82.40;100987.34;5112296;27;20203;-61
2023/12/08 08:03:26;;;;;;;41.37;18.97;;;;;;;-2.70;82.45;100985.28;5104904;28;22103;-62
2023/12/08 08:05:54;;;;;;;40.97;18.87;;;;;;;-2.64;81.95;100980.59;5113389;27;20195;-62
2023/12/08 08:08:23;;;;;;;39.93;20.07;;;;;;;-2.68;80.60;100983.72;5097031;28;20200;-62
2023/12/08 08:10:51;;;;;;;43.63;20.43;;;;;;;-2.80;80.45;100978.84;5097171;27;20906;-61
2023/12/08 08:13:19;;;;;;;42.10;20.10;;;;;;;-2.76;81.09;100979.88;5108767;27;20627;-60
2023/12/08 08:15:47;;;;;;;42.23;19.27;;;;;;;-2.76;81.77;100983.28;5102823;28;20199;-68
2023/12/08 08:18:14;;;;;;;43.17;19.67;;;;;;;-2.71;81.64;100983.53;5115949;28;20230;-64
2023/12/08 08:20:42;;;;;;;44.77;19.33;;;;;;;-2.70;81.68;100975.19;5109788;27;20207;-62
2023/12/08 08:23:10;;;;;;;40.77;18.67;;;;;;;-2.62;81.81;100976.47;5111557;27;20200;-61
2023/12/08 08:25:40;;;;;;;38.93;18.17;;;;;;;-2.57;80.96;100980.16;5109706;27;20991;-63
2023/12/08 08:28:08;;;;;;;43.50;20.00;;;;;;;-2.61;80.58;100983.28;5114830;27;20239;-62
2023/12/08 08:30:36;;;;;;;34.13;15.27;;;;;;;-2.68;80.46;100989.63;5110790;27;20235;-64
2023/12/08 08:33:04;;;;;;;40.23;19.03;;;;;;;-2.75;81.53;100991.72;5108141;27;20212;-66
2023/12/08 08:35:32;;;;;;;39.90;19.70;;;;;;;-2.74;81.55;100988.41;5120729;27;20207;-63
2023/12/08 08:38:00;;;;;;;42.37;21.50;;;;;;;-2.71;81.08;100988.59;5109829;27;20714;-65
2023/12/08 08:40:31;;;;;;;41.77;19.97;;;;;;;-2.60;81.51;100987.53;5114945;27;20726;-66
2023/12/08 08:43:00;;;;;;;44.67;20.90;;;;;;;-2.50;80.68;100988.94;5124142;27;20199;-66
2023/12/08 08:45:28;;;;;;;42.10;20.27;;;;;;;-2.50;80.06;100982.22;5108268;27;20583;-66
2023/12/08 08:47:56;;;;;;;45.17;19.40;;;;;;;-2.50;80.02;100977.19;5110992;27;20223;-65
2023/12/08 08:50:24;;;;;;;45.60;21.53;;;;;;;-2.45;80.28;100990.91;5105370;27;20621;-63
2023/12/08 08:52:53;;;;;;;47.50;20.47;;;;;;;-2.40;80.21;100996.22;5109040;27;20628;-65
2023/12/08 08:55:21;;;;;;;45.53;21.13;;;;;;;-2.30;80.66;100995.94;5114358;27;20206;-64
2023/12/08 08:57:50;;;;;;;41.37;19.77;;;;;;;-2.22;80.00;100993.84;5116582;27;20647;-68
2023/12/08 09:00:21;;;;;;;34.07;16.50;;;;;;;-2.23;79.14;100995.50;5111540;27;20614;-68
2023/12/08 09:02:51;;;;;;;40.50;20.77;;;;;;;-2.39;79.16;100992.91;5114382;27;20662;-65
2023/12/08 09:05:20;;;;;;;47.10;21.83;;;;;;;-2.48;79.17;100997.44;5108055;27;20223;-70
2023/12/08 09:07:48;;;;;;;46.03;21.63;;;;;;;-2.47;79.69;100997.53;5114140;27;20505;-66
2023/12/08 09:10:16;;;;;;;43.33;20.90;;;;;;;-2.52;79.66;100981.25;5113500;27;20204;-66
2023/12/08 09:12:45;;;;;;;39.20;20.73;;;;;;;-2.48;79.52;100983.16;5124606;27;20208;-65
2023/12/08 09:15:13;;;;;;;44.30;20.47;;;;;;;-2.39;80.33;100976.88;5123181;27;20220;-65
2023/12/08 09:17:43;;;;;;;47.67;22.00;;;;;;;-2.29;80.27;100969.91;5110073;27;20240;-65
2023/12/08 09:20:14;;;;;;;47.23;21.70;;;;;;;-2.22;79.22;100961.00;5121163;27;20204;-67
2023/12/08 09:22:42;;;;;;;40.33;20.67;;;;;;;-2.36;79.06;100954.34;5113034;27;20214;-69
2023/12/08 09:25:10;;;;;;;41.40;20.37;;;;;;;-2.34;79.57;100955.31;5123376;27;20196;-65
2023/12/08 09:27:38;;;;;;;43.57;19.53;;;;;;;-2.41;79.09;100944.00;5116423;27;20225;-63
2023/12/08 09:30:07;;;;;;;40.97;21.10;;;;;;;-2.36;79.95;100944.25;5109601;27;20685;-63
2023/12/08 09:32:35;;;;;;;44.40;21.03;;;;;;;-2.30;80.01;100950.50;5104583;27;20308;-64
2023/12/08 09:35:05;;;;;;;45.53;21.20;;;;;;;-2.23;79.67;100941.63;5111805;27;20215;-66
2023/12/08 09:37:33;;;;;;;47.17;22.10;;;;;;;-2.09;79.84;100943.22;5116825;27;20647;-65
2023/12/08 09:40:08;;;;;;;43.03;20.37;;;;;;;-2.01;78.67;100941.97;5117606;27;20208;-64
2023/12/08 09:42:37;;;;;;;46.50;20.77;;;;;;;-2.10;78.05;100931.41;5113376;27;20673;-61
2023/12/08 09:45:09;;;;;;;41.63;20.50;;;;;;;-2.23;78.81;100923.94;5117733;27;20196;-60
2023/12/08 09:47:37;;;;;;;38.33;19.30;;;;;;;-2.21;79.37;100918.22;5113422;27;20205;-59
2023/12/08 09:50:09;;;;;;;48.73;22.93;;;;;;;-2.22;78.39;100920.63;5119036;27;20204;-61
2023/12/08 09:52:38;;;;;;;45.03;22.40;;;;;;;-2.19;78.66;100925.84;5110141;27;20699;-59
2023/12/08 09:55:07;;;;;;;44.10;22.63;;;;;;;-2.13;78.83;100926.19;5111247;27;20679;-60
2023/12/08 09:57:35;;;;;;;44.23;21.10;;;;;;;-2.02;79.04;100935.19;5106980;27;20275;-62
2023/12/08 10:00:10;;;;;;;37.33;20.73;;;;;;;-1.95;77.89;100939.78;5110966;27;20220;-61
2023/12/08 10:02:39;;;;;;;45.07;21.03;;;;;;;-1.96;77.64;100939.69;5123438;27;20245;-63
2023/12/08 10:05:10;;;;;;;47.20;21.60;;;;;;;-2.05;77.61;100942.59;5120284;27;20654;-64
2023/12/08 10:07:41;;;;;;;43.67;22.40;;;;;;;-2.04;77.87;100939.28;5107718;27;20239;-61
2023/12/08 10:10:10;;;;;;;42.03;20.80;;;;;;;-2.05;77.78;100937.56;5115622;27;20199;-60
2023/12/08 10:12:38;;;;;;;44.37;20.37;;;;;;;-1.99;77.82;100937.00;5108183;27;20241;-62
2023/12/08 10:15:10;;;;;;;46.97;21.73;;;;;;;-1.98;78.10;100941.28;5102700;27;20208;-61
2023/12/08 10:17:47;;;;;;;39.93;19.63;;;;;;;-1.96;78.20;100947.25;5113739;27;20235;-62
2023/12/08 10:20:21;;;;;;;39.70;19.17;;;;;;;-1.83;78.64;100936.19;5109037;27;20195;-62
2023/12/08 10:22:51;;;;;;;40.90;20.93;;;;;;;-1.72;78.10;100935.94;5114814;27;20666;-61
2023/12/08 10:25:21;;;;;;;39.50;19.93;;;;;;;-1.65;77.35;100932.06;5127812;27;20224;-62
2023/12/08 10:27:51;;;;;;;44.97;20.60;;;;;;;-1.57;77.44;100935.00;5109195;27;20259;-60
2023/12/08 10:30:19;;;;;;;43.33;20.67;;;;;;;-1.54;76.76;100927.56;5102927;27;20249;-62
2023/12/08 10:32:48;;;;;;;41.63;21.07;;;;;;;-1.54;76.35;100933.50;5113508;27;20204;-61
2023/12/08 10:35:16;;;;;;;44.00;19.43;;;;;;;-1.59;76.30;100924.78;5114723;27;20307;-60
2023/12/08 10:37:46;;;;;;;45.77;22.53;;;;;;;-1.61;77.09;100913.75;5109081;27;20232;-61
2023/12/08 10:40:17;;;;;;;47.20;22.13;;;;;;;-1.58;76.88;100915.59;5113045;27;20559;-62
2023/12/08 10:42:45;;;;;;;48.23;21.53;;;;;;;-1.58;76.75;100908.00;5115555;27;20296;-66
2023/12/08 10:45:14;;;;;;;42.40;22.47;;;;;;;-1.62;76.71;100898.50;5106884;27;20224;-63
2023/12/08 10:47:43;;;;;;;41.87;20.83;;;;;;;-1.60;76.71;100890.22;5119165;27;20711;-60
2023/12/08 10:50:13;;;;;;;38.80;17.70;;;;;;;-1.72;75.86;100880.34;5112099;27;20232;-62
2023/12/08 10:52:41;;;;;;;40.97;20.20;;;;;;;-1.91;77.21;100875.16;5105552;27;20675;-65
2023/12/08 10:55:11;;;;;;;43.93;20.93;;;;;;;-1.99;77.24;100874.75;5119306;27;20226;-66
2023/12/08 10:57:39;;;;;;;39.37;19.70;;;;;;;-1.99;77.66;100869.72;5112137;27;20207;-66
2023/12/08 11:00:12;;;;;;;42.97;22.13;;;;;;;-1.93;78.38;100873.34;5104544;27;20228;-64
2023/12/08 11:02:43;;;;;;;42.50;21.87;;;;;;;-1.85;78.21;100877.13;5108130;27;20582;-64
2023/12/08 11:05:16;;;;;;;44.40;21.47;;;;;;;-1.83;77.75;100866.31;5118812;27;20202;-65
2023/12/08 11:07:47;;;;;;;45.67;21.93;;;;;;;-1.80;77.89;100865.59;5115480;27;20199;-67
2023/12/08 11:10:17;;;;;;;45.97;21.70;;;;;;;-1.85;77.13;100869.53;5103472;27;20204;-67
2023/12/08 11:12:54;;;;;;;43.10;20.40;;;;;;;-1.88;77.66;100871.91;5111008;27;20200;-69
2023/12/08 11:15:23;;;;;;;49.17;22.53;;;;;;;-1.88;77.67;100872.75;5102813;27;20268;-64